createdAt,value
2022-09-15T00:01:15.794Z,17.49
2022-09-15T00:03:44.001Z,17.50
2022-09-15T00:06:12.405Z,17.50
2022-09-15T00:08:42.530Z,17.50
2022-09-15T00:11:12.864Z,17.51
2022-09-15T00:13:41.477Z,17.51
2022-09-15T00:16:13.622Z,17.53
2022-09-15T00:18:43.602Z,17.52
2022-09-15T00:21:13.059Z,17.56
2022-09-15T00:23:42.920Z,17.54
2022-09-15T00:26:14.306Z,17.55
2022-09-15T00:28:43.477Z,17.55
2022-09-15T00:31:14.319Z,17.56
2022-09-15T00:33:42.709Z,17.55
2022-09-15T00:36:15.343Z,17.55
2022-09-15T00:38:44.982Z,17.52
2022-09-15T00:41:15.658Z,17.47
2022-09-15T00:43:48.626Z,17.49
2022-09-15T00:46:18.551Z,17.48
2022-09-15T00:48:52.136Z,17.52
2022-09-15T00:51:24.175Z,17.53
2022-09-15T00:53:54.061Z,17.53
2022-09-15T00:56:23.446Z,17.53
2022-09-15T00:58:55.715Z,17.51
2022-09-15T01:01:26.867Z,17.56
2022-09-15T01:03:55.846Z,17.58
2022-09-15T01:06:30.942Z,17.55
2022-09-15T01:09:05.617Z,17.57
2022-09-15T01:11:33.983Z,17.58
2022-09-15T01:14:02.200Z,17.58
2022-09-15T01:16:40.425Z,17.59
2022-09-15T01:19:46.828Z,17.63
2022-09-15T01:22:31.691Z,17.64
2022-09-15T01:25:10.992Z,17.67
2022-09-15T01:28:16.215Z,17.68
2022-09-15T01:30:52.323Z,17.69
2022-09-15T01:33:29.232Z,17.67
2022-09-15T01:36:04.685Z,17.68
2022-09-15T01:38:42.449Z,17.68
2022-09-15T01:41:15.590Z,17.68
2022-09-15T01:43:51.503Z,17.67
2022-09-15T01:46:24.554Z,17.70
2022-09-15T01:48:55.110Z,17.71
2022-09-15T01:51:24.803Z,17.71
2022-09-15T01:53:54.614Z,17.73
2022-09-15T01:56:22.549Z,17.74
2022-09-15T01:58:51.914Z,17.70
2022-09-15T02:01:28.021Z,17.71
2022-09-15T02:04:00.659Z,17.73
2022-09-15T02:06:37.307Z,17.73
2022-09-15T02:09:12.750Z,17.70
2022-09-15T02:11:52.177Z,17.71
2022-09-15T02:14:28.304Z,17.73
2022-09-15T02:16:57.514Z,17.74
2022-09-15T02:19:34.221Z,17.70
2022-09-15T02:22:10.582Z,17.73
2022-09-15T02:24:43.235Z,17.70
2022-09-15T02:27:20.259Z,17.69
2022-09-15T02:29:50.088Z,17.71
2022-09-15T02:32:23.196Z,17.70
2022-09-15T02:34:52.713Z,17.72
2022-09-15T02:37:23.841Z,17.73
2022-09-15T02:39:57.892Z,17.77
2022-09-15T02:42:26.925Z,17.79
2022-09-15T02:44:54.987Z,17.78
2022-09-15T02:47:24.640Z,17.77
2022-09-15T02:49:52.791Z,17.77
2022-09-15T02:52:20.926Z,17.78
2022-09-15T02:54:50.318Z,17.79
2022-09-15T02:57:18.430Z,17.80
2022-09-15T03:00:03.800Z,17.79
2022-09-15T03:02:32.946Z,17.81
2022-09-15T03:05:00.673Z,17.84
2022-09-15T03:07:30.118Z,17.89
2022-09-15T03:09:58.293Z,17.86
2022-09-15T03:12:26.551Z,17.92
2022-09-15T03:14:54.278Z,17.85
2022-09-15T03:17:22.214Z,17.91
2022-09-15T03:19:52.051Z,17.86
2022-09-15T03:22:19.822Z,17.81
2022-09-15T03:24:47.959Z,17.72
2022-09-15T03:27:15.685Z,17.70
2022-09-15T03:29:43.470Z,17.62
2022-09-15T03:32:11.277Z,17.62
2022-09-15T03:34:39.105Z,17.67
2022-09-15T03:37:08.402Z,17.42
2022-09-15T03:39:36.298Z,17.43
2022-09-15T03:42:04.800Z,17.42
2022-09-15T03:44:32.959Z,17.33
2022-09-15T03:47:01.113Z,17.44
2022-09-15T03:49:29.061Z,17.45
2022-09-15T03:51:57.063Z,17.35
2022-09-15T03:54:26.442Z,17.38
2022-09-15T03:56:54.456Z,17.47
2022-09-15T03:59:22.481Z,17.35
2022-09-15T04:01:50.450Z,17.27
2022-09-15T04:04:18.581Z,17.35
2022-09-15T04:06:46.569Z,17.25
2022-09-15T04:09:14.589Z,17.22
2022-09-15T04:11:43.663Z,17.09
2022-09-15T04:14:11.981Z,17.08
2022-09-15T04:16:40.046Z,16.96
2022-09-15T04:19:07.978Z,16.97
2022-09-15T04:21:35.857Z,16.87
2022-09-15T04:24:04.787Z,16.84
2022-09-15T04:26:34.751Z,16.71
2022-09-15T04:29:06.490Z,16.68
2022-09-15T04:31:34.974Z,16.62
2022-09-15T04:34:02.922Z,16.46
2022-09-15T04:36:31.659Z,16.46
2022-09-15T04:38:59.790Z,16.39
2022-09-15T04:41:29.683Z,16.34
2022-09-15T04:43:58.487Z,16.26
2022-09-15T04:46:27.873Z,16.19
2022-09-15T04:48:57.343Z,16.35
2022-09-15T04:51:27.187Z,16.23
2022-09-15T04:53:55.523Z,16.29
2022-09-15T04:56:25.591Z,16.32
2022-09-15T04:58:59.495Z,16.25
2022-09-15T05:01:35.094Z,16.26
2022-09-15T05:04:04.300Z,16.21
2022-09-15T05:06:33.377Z,16.22
2022-09-15T05:09:02.406Z,16.21
2022-09-15T05:11:32.817Z,16.18
2022-09-15T05:14:00.949Z,16.23
2022-09-15T05:16:31.342Z,16.25
2022-09-15T05:19:01.217Z,16.17
2022-09-15T05:21:29.324Z,16.17
2022-09-15T05:23:57.391Z,16.08
2022-09-15T05:26:28.316Z,16.03
2022-09-15T05:28:56.920Z,15.88
2022-09-15T05:31:26.651Z,15.91
2022-09-15T05:33:56.006Z,15.93
2022-09-15T05:36:25.854Z,15.81
2022-09-15T05:38:56.385Z,15.89
2022-09-15T05:41:24.925Z,15.94
2022-09-15T05:43:54.436Z,15.81
2022-09-15T05:46:22.488Z,15.82
2022-09-15T05:48:50.523Z,15.64
2022-09-15T05:51:19.867Z,15.74
2022-09-15T05:53:47.876Z,15.63
2022-09-15T05:56:17.126Z,15.87
2022-09-15T05:58:46.729Z,15.66
2022-09-15T06:01:17.798Z,15.67
2022-09-15T06:03:46.226Z,15.56
2022-09-15T06:06:14.689Z,15.61
2022-09-15T06:08:48.294Z,15.48
2022-09-15T06:11:18.460Z,15.57
2022-09-15T06:13:47.474Z,15.54
2022-09-15T06:16:18.317Z,15.42
2022-09-15T06:18:47.356Z,15.34
2022-09-15T06:21:19.078Z,15.30
2022-09-15T06:23:53.425Z,15.33
2022-09-15T06:26:21.684Z,15.31
2022-09-15T06:28:51.369Z,15.37
2022-09-15T06:31:20.019Z,15.34
2022-09-15T06:33:51.326Z,15.39
2022-09-15T06:36:20.906Z,15.41
2022-09-15T06:38:51.609Z,15.47
2022-09-15T06:41:19.816Z,15.43
2022-09-15T06:43:49.365Z,15.47
2022-09-15T06:46:19.809Z,15.41
2022-09-15T06:48:48.723Z,15.37
2022-09-15T06:51:18.010Z,15.49
2022-09-15T06:53:46.730Z,15.41
2022-09-15T06:56:17.806Z,15.42
2022-09-15T06:58:48.858Z,15.46
2022-09-15T07:01:22.082Z,15.59
2022-09-15T07:03:50.447Z,15.63
2022-09-15T07:06:18.870Z,15.57
2022-09-15T07:08:47.350Z,15.58
2022-09-15T07:11:17.578Z,15.61
2022-09-15T07:13:45.681Z,15.55
2022-09-15T07:16:15.465Z,15.53
2022-09-15T07:18:43.942Z,15.60
2022-09-15T07:21:13.601Z,15.72
2022-09-15T07:23:41.803Z,15.61
2022-09-15T07:26:12.472Z,15.68
2022-09-15T07:28:45.565Z,15.68
2022-09-15T07:31:16.137Z,15.78
2022-09-15T07:33:43.998Z,15.85
2022-09-15T07:36:12.622Z,15.82
2022-09-15T07:38:42.212Z,15.99
2022-09-15T07:41:11.937Z,15.99
2022-09-15T07:43:41.491Z,16.14
2022-09-15T07:46:09.621Z,16.11
2022-09-15T07:48:37.652Z,16.12
2022-09-15T07:51:06.008Z,16.22
2022-09-15T07:53:34.037Z,16.12
2022-09-15T07:56:01.990Z,16.33
2022-09-15T07:58:30.000Z,16.20
2022-09-15T08:01:04.337Z,16.32
2022-09-15T08:03:32.366Z,16.32
2022-09-15T08:06:00.850Z,16.41
2022-09-15T08:08:29.277Z,16.35
2022-09-15T08:10:57.554Z,16.36
2022-09-15T08:13:25.450Z,16.38
2022-09-15T08:15:53.359Z,16.35
2022-09-15T08:18:22.645Z,16.39
2022-09-15T08:20:50.457Z,16.44
2022-09-15T08:23:18.299Z,16.39
2022-09-15T08:25:47.655Z,16.39
2022-09-15T08:28:15.744Z,16.58
2022-09-15T08:30:43.667Z,16.75
2022-09-15T08:33:11.671Z,16.73
2022-09-15T08:35:40.860Z,16.70
2022-09-15T08:38:09.171Z,16.65
2022-09-15T08:40:38.685Z,16.66
2022-09-15T08:43:13.873Z,16.69
2022-09-15T08:45:51.328Z,16.74
2022-09-15T08:48:25.677Z,16.65
2022-09-15T08:50:59.279Z,16.72
2022-09-15T08:53:33.584Z,16.43
2022-09-15T08:56:14.326Z,16.37
2022-09-15T08:58:42.366Z,16.41
2022-09-15T09:01:23.437Z,16.41
2022-09-15T09:04:10.961Z,16.54
2022-09-15T09:06:49.251Z,16.44
2022-09-15T09:09:24.447Z,16.32
2022-09-15T09:12:16.160Z,16.31
2022-09-15T09:14:54.918Z,16.19
2022-09-15T09:17:39.744Z,16.30
2022-09-15T09:20:33.369Z,16.42
2022-09-15T09:23:08.702Z,16.46
2022-09-15T09:25:37.302Z,16.55
2022-09-15T09:28:07.745Z,16.47
2022-09-15T09:30:37.279Z,16.47
2022-09-15T09:33:20.062Z,16.48
2022-09-15T09:35:51.512Z,16.77
2022-09-15T09:38:22.623Z,16.71
2022-09-15T09:40:51.002Z,16.80
2022-09-15T09:43:19.098Z,16.89
2022-09-15T09:45:46.962Z,17.05
2022-09-15T09:48:19.110Z,17.22
2022-09-15T09:50:47.876Z,17.15
2022-09-15T09:53:24.654Z,17.07
2022-09-15T09:55:53.316Z,17.08
2022-09-15T09:58:23.255Z,17.11
2022-09-15T10:00:52.142Z,16.99
2022-09-15T10:03:22.348Z,17.02
2022-09-15T10:06:03.703Z,17.28
2022-09-15T10:08:33.739Z,17.27
2022-09-15T10:11:06.051Z,17.51
2022-09-15T10:13:42.559Z,17.76
2022-09-15T10:16:11.730Z,17.68
2022-09-15T10:18:40.451Z,17.51
2022-09-15T10:21:11.167Z,17.50
2022-09-15T10:23:40.433Z,17.49
2022-09-15T10:26:23.387Z,17.81
2022-09-15T10:29:12.716Z,17.80
2022-09-15T10:31:41.814Z,17.81
2022-09-15T10:34:27.137Z,17.79
2022-09-15T10:36:56.200Z,17.75
2022-09-15T10:39:34.393Z,18.10
2022-09-15T10:42:12.949Z,18.40
2022-09-15T10:44:50.712Z,18.55
2022-09-15T10:47:31.992Z,18.76
2022-09-15T10:50:13.216Z,18.68
2022-09-15T10:53:06.351Z,18.67
2022-09-15T10:55:53.573Z,18.54
2022-09-15T10:58:45.815Z,18.61
2022-09-15T11:01:31.629Z,18.64
2022-09-15T11:04:23.427Z,18.42
2022-09-15T11:07:00.346Z,18.49
2022-09-15T11:09:34.965Z,18.53
2022-09-15T11:12:17.835Z,18.55
2022-09-15T11:14:57.792Z,18.72
2022-09-15T11:17:44.810Z,18.88
2022-09-15T11:20:38.068Z,19.08
2022-09-15T11:23:16.513Z,18.86
2022-09-15T11:25:48.449Z,18.65
2022-09-15T11:28:23.710Z,18.71
2022-09-15T11:30:57.222Z,18.90
2022-09-15T11:33:30.700Z,19.51
2022-09-15T11:36:04.185Z,19.60
2022-09-15T11:38:40.457Z,19.73
2022-09-15T11:41:19.984Z,19.52
2022-09-15T11:44:00.167Z,19.30
2022-09-15T11:46:39.909Z,18.97
2022-09-15T11:49:12.215Z,19.61
2022-09-15T11:51:50.835Z,19.41
2022-09-15T11:54:25.306Z,19.43
2022-09-15T11:56:55.058Z,19.55
2022-09-15T11:59:32.611Z,19.57
2022-09-15T12:02:11.387Z,19.30
2022-09-15T12:04:45.434Z,18.79
2022-09-15T12:07:17.378Z,18.60
2022-09-15T12:09:45.525Z,18.45
2022-09-15T12:12:17.061Z,18.27
2022-09-15T12:14:49.147Z,18.35
2022-09-15T12:17:26.018Z,18.34
2022-09-15T12:19:59.975Z,18.27
2022-09-15T12:22:33.814Z,18.73
2022-09-15T12:25:06.608Z,19.61
2022-09-15T12:27:34.747Z,19.38
2022-09-15T12:30:05.476Z,19.67
2022-09-15T12:32:35.134Z,19.81
2022-09-15T12:35:11.380Z,20.85
2022-09-15T12:37:44.121Z,20.38
2022-09-15T12:40:34.849Z,19.96
2022-09-15T12:43:04.488Z,20.45
2022-09-15T12:45:36.869Z,19.58
2022-09-15T12:48:08.169Z,19.19
2022-09-15T12:50:37.979Z,19.52
2022-09-15T12:53:15.115Z,19.51
2022-09-15T12:55:51.177Z,19.27
2022-09-15T12:58:30.307Z,19.16
2022-09-15T13:01:32.539Z,19.17
2022-09-15T13:04:23.741Z,19.33
2022-09-15T13:07:24.713Z,19.21
2022-09-15T13:09:59.119Z,19.21
2022-09-15T13:12:33.147Z,19.33
2022-09-15T13:15:04.173Z,19.54
2022-09-15T13:17:35.178Z,19.98
2022-09-15T13:20:10.607Z,20.12
2022-09-15T13:22:43.763Z,20.70
2022-09-15T13:25:17.486Z,20.29
2022-09-15T13:27:49.725Z,19.94
2022-09-15T13:30:35.551Z,19.94
2022-09-15T13:33:15.735Z,20.80
2022-09-15T13:36:11.040Z,21.45
2022-09-15T13:39:05.637Z,21.07
2022-09-15T13:42:11.601Z,20.35
2022-09-15T13:45:29.325Z,19.96
2022-09-15T13:48:16.038Z,19.98
2022-09-15T13:50:55.526Z,20.74
2022-09-15T13:53:37.198Z,20.97
2022-09-15T13:56:11.235Z,20.29
2022-09-15T13:59:05.037Z,20.67
2022-09-15T14:01:34.552Z,21.06
2022-09-15T14:04:08.200Z,21.39
2022-09-15T14:06:38.935Z,20.83
2022-09-15T14:09:10.841Z,20.59
2022-09-15T14:11:39.578Z,20.29
2022-09-15T14:14:12.446Z,19.72
2022-09-15T14:16:40.919Z,19.52
2022-09-15T14:19:35.275Z,19.60
2022-09-15T14:22:25.973Z,19.15
2022-09-15T14:24:54.871Z,19.24
2022-09-15T14:27:25.663Z,19.21
2022-09-15T14:29:57.581Z,19.29
2022-09-15T14:32:27.898Z,19.05
2022-09-15T14:35:05.441Z,18.91
2022-09-15T14:37:34.762Z,18.94
2022-09-15T14:40:17.989Z,19.44
2022-09-15T14:42:45.846Z,19.44
2022-09-15T14:48:08.694Z,19.59
2022-09-15T14:50:38.535Z,20.00
2022-09-15T14:53:09.376Z,20.48
2022-09-15T14:55:44.625Z,20.41
2022-09-15T14:58:21.249Z,20.32
2022-09-15T15:00:55.812Z,19.94
2022-09-15T15:03:33.439Z,19.62
2022-09-15T15:06:28.474Z,19.28
2022-09-15T15:09:01.470Z,19.07
2022-09-15T15:11:33.007Z,19.00
2022-09-15T15:14:02.077Z,18.66
2022-09-15T15:16:32.865Z,18.74
2022-09-15T15:19:01.557Z,18.82
2022-09-15T15:21:39.501Z,18.87
2022-09-15T15:24:18.385Z,18.88
2022-09-15T15:26:47.532Z,18.90
2022-09-15T15:29:42.501Z,18.79
2022-09-15T15:32:13.937Z,18.66
2022-09-15T15:34:49.819Z,18.69
2022-09-15T15:37:26.752Z,18.72
2022-09-15T15:39:56.009Z,18.79
2022-09-15T15:42:25.362Z,18.93
2022-09-15T15:45:01.397Z,18.93
2022-09-15T15:47:32.243Z,18.76
2022-09-15T15:50:13.414Z,18.76
2022-09-15T15:52:43.893Z,18.80
2022-09-15T15:55:14.912Z,18.79
2022-09-15T15:57:44.164Z,18.93
2022-09-15T16:00:21.583Z,18.95
2022-09-15T16:02:50.979Z,18.88
2022-09-15T16:05:20.558Z,18.93
2022-09-15T16:07:52.173Z,18.98
2022-09-15T16:10:22.614Z,18.89
2022-09-15T16:12:50.860Z,18.97
2022-09-15T16:15:20.704Z,18.92
2022-09-15T16:17:49.645Z,18.95
2022-09-15T16:20:19.675Z,19.03
2022-09-15T16:22:49.064Z,19.02
2022-09-15T16:25:19.791Z,18.94
2022-09-15T16:27:47.682Z,18.80
2022-09-15T16:30:15.797Z,18.66
2022-09-15T16:32:44.050Z,18.61
2022-09-15T16:35:23.341Z,18.47
2022-09-15T16:37:52.518Z,18.40
2022-09-15T16:40:20.476Z,18.32
2022-09-15T16:42:48.905Z,18.36
2022-09-15T16:45:26.813Z,18.17
2022-09-15T16:47:54.770Z,18.06
2022-09-15T16:50:22.899Z,18.02
2022-09-15T16:52:53.166Z,18.02
2022-09-15T16:55:36.200Z,17.94
2022-09-15T16:58:04.821Z,17.94
2022-09-15T17:00:36.249Z,18.01
2022-09-15T17:03:04.624Z,18.03
2022-09-15T17:05:36.422Z,18.00
2022-09-15T17:08:06.636Z,17.89
2022-09-15T17:10:34.860Z,17.90
2022-09-15T17:13:03.462Z,17.84
2022-09-15T17:15:35.304Z,17.69
2022-09-15T17:18:03.392Z,17.66
2022-09-15T17:20:34.777Z,17.51
2022-09-15T17:23:17.647Z,17.47
2022-09-15T17:25:51.235Z,17.42
2022-09-15T17:28:21.065Z,17.33
2022-09-15T17:30:50.968Z,17.31
2022-09-15T17:33:20.386Z,17.28
2022-09-15T17:35:49.500Z,17.25
2022-09-15T17:38:20.432Z,17.24
2022-09-15T17:41:14.818Z,17.25
2022-09-15T17:43:43.018Z,17.20
2022-09-15T17:46:10.943Z,17.18
2022-09-15T17:48:40.075Z,17.08
2022-09-15T17:51:09.469Z,17.03
2022-09-15T17:53:38.689Z,16.96
2022-09-15T17:56:07.009Z,16.90
2022-09-15T17:58:35.303Z,16.90
2022-09-15T18:01:04.623Z,16.88
2022-09-15T18:03:35.105Z,16.77
2022-09-15T18:06:05.693Z,16.71
2022-09-15T18:08:34.183Z,16.68
2022-09-15T18:11:04.909Z,16.63
2022-09-15T18:13:33.457Z,16.67
2022-09-15T18:16:06.093Z,16.62
2022-09-15T18:18:34.222Z,16.58
2022-09-15T18:21:02.643Z,16.59
2022-09-15T18:23:30.497Z,16.64
2022-09-15T18:25:58.652Z,16.67
2022-09-15T18:28:27.934Z,16.74
2022-09-15T18:30:56.708Z,16.82
2022-09-15T18:33:26.093Z,16.81
2022-09-15T18:35:56.036Z,16.80
2022-09-15T18:38:24.342Z,16.82
2022-09-15T18:40:55.339Z,16.82
2022-09-15T18:43:26.338Z,16.79
2022-09-15T18:45:59.459Z,16.78
2022-09-15T18:48:28.544Z,16.80
2022-09-15T18:50:57.154Z,16.90
2022-09-15T18:53:25.046Z,16.91
2022-09-15T18:55:52.965Z,16.90
2022-09-15T18:58:22.360Z,16.92
2022-09-15T19:00:50.361Z,16.95
2022-09-15T19:03:19.433Z,16.94
2022-09-15T19:05:47.255Z,16.92
2022-09-15T19:08:15.521Z,16.93
2022-09-15T19:10:44.253Z,17.03
2022-09-15T19:13:14.058Z,17.05
2022-09-15T19:15:43.899Z,17.15
2022-09-15T19:18:12.071Z,17.19
2022-09-15T19:20:42.219Z,17.21
2022-09-15T19:23:10.555Z,17.26
2022-09-15T19:25:38.485Z,17.32
2022-09-15T19:28:06.337Z,17.20
2022-09-15T19:30:34.730Z,17.41
2022-09-15T19:33:03.567Z,17.42
2022-09-15T19:35:31.494Z,17.66
2022-09-15T19:38:01.138Z,17.56
2022-09-15T19:40:29.594Z,17.28
2022-09-15T19:42:57.682Z,17.06
2022-09-15T19:45:25.482Z,16.91
2022-09-15T19:47:53.327Z,16.87
2022-09-15T19:50:21.290Z,16.71
2022-09-15T19:52:49.795Z,16.53
2022-09-15T19:55:19.350Z,16.50
2022-09-15T19:57:47.473Z,16.58
2022-09-15T20:00:16.040Z,16.61
2022-09-15T20:02:48.184Z,16.43
2022-09-15T20:05:16.349Z,16.43
2022-09-15T20:07:47.952Z,16.51
2022-09-15T20:10:16.283Z,16.47
2022-09-15T20:12:45.510Z,16.45
2022-09-15T20:15:13.456Z,16.47
2022-09-15T20:17:42.453Z,16.47
2022-09-15T20:20:12.406Z,16.52
2022-09-15T20:22:40.528Z,16.53
2022-09-15T20:25:08.859Z,16.48
2022-09-15T20:27:37.050Z,16.49
2022-09-15T20:30:07.998Z,16.50
2022-09-15T20:32:36.379Z,16.53
2022-09-15T20:35:04.873Z,16.60
2022-09-15T20:37:37.420Z,16.38
2022-09-15T20:40:06.515Z,16.39
2022-09-15T20:42:34.636Z,16.48
2022-09-15T20:45:03.013Z,16.42
2022-09-15T20:47:32.203Z,16.47
2022-09-15T20:50:00.091Z,16.38
2022-09-15T20:52:34.763Z,16.35
2022-09-15T20:55:07.218Z,16.30
2022-09-15T20:57:35.008Z,16.40
2022-09-15T21:00:04.769Z,16.42
2022-09-15T21:02:34.006Z,16.32
2022-09-15T21:05:02.805Z,16.34
2022-09-15T21:07:31.555Z,16.35
2022-09-15T21:09:59.381Z,16.33
2022-09-15T21:12:27.413Z,16.39
2022-09-15T21:14:55.601Z,16.22
2022-09-15T21:17:23.431Z,16.18
2022-09-15T21:19:52.614Z,16.25
2022-09-15T21:22:20.472Z,16.18
2022-09-15T21:24:48.206Z,16.08
2022-09-15T21:27:28.789Z,16.16
2022-09-15T21:29:56.782Z,16.09
2022-09-15T21:32:25.290Z,16.12
2022-09-15T21:34:55.922Z,16.07
2022-09-15T21:37:23.775Z,16.18
2022-09-15T21:39:51.650Z,16.13
2022-09-15T21:42:19.561Z,16.05
2022-09-15T21:44:47.298Z,15.97
2022-09-15T21:47:15.888Z,16.02
2022-09-15T21:49:43.733Z,16.04
2022-09-15T21:52:13.184Z,16.02
2022-09-15T21:54:40.965Z,16.07
2022-09-15T21:57:09.076Z,16.07
2022-09-15T21:59:37.172Z,16.02
2022-09-15T22:02:05.403Z,15.97
2022-09-15T22:04:34.421Z,15.98
2022-09-15T22:07:04.615Z,15.89
2022-09-15T22:09:34.113Z,15.96
2022-09-15T22:12:02.333Z,15.93
2022-09-15T22:14:30.043Z,15.92
2022-09-15T22:16:58.217Z,15.93
2022-09-15T22:19:26.746Z,15.88
2022-09-15T22:21:54.523Z,15.89
2022-09-15T22:24:22.314Z,15.86
2022-09-15T22:26:51.552Z,15.84
2022-09-15T22:29:19.316Z,15.80
2022-09-15T22:31:47.537Z,15.86
2022-09-15T22:34:16.074Z,15.88
2022-09-15T22:36:44.186Z,15.86
2022-09-15T22:39:12.990Z,15.75
2022-09-15T22:41:41.227Z,15.74
2022-09-15T22:44:19.493Z,15.75
2022-09-15T22:46:47.382Z,15.73
2022-09-15T22:49:15.168Z,15.73
2022-09-15T22:51:43.683Z,15.71
2022-09-15T22:54:11.526Z,15.71
2022-09-15T22:56:39.365Z,15.71
2022-09-15T22:59:07.156Z,15.72
2022-09-15T23:01:36.530Z,15.59
2022-09-15T23:04:04.454Z,15.58
2022-09-15T23:06:34.079Z,15.66
2022-09-15T23:09:05.873Z,15.55
2022-09-15T23:11:34.140Z,15.57
2022-09-15T23:14:03.405Z,15.53
2022-09-15T23:16:32.267Z,15.58
2022-09-15T23:19:01.863Z,15.58
2022-09-15T23:21:29.735Z,15.55
2022-09-15T23:23:59.270Z,15.69
2022-09-15T23:26:28.336Z,15.64
2022-09-15T23:28:56.816Z,15.63
2022-09-15T23:31:24.719Z,15.59
2022-09-15T23:33:52.548Z,15.55
2022-09-15T23:36:22.185Z,15.60
2022-09-15T23:38:50.764Z,15.50
2022-09-15T23:41:19.505Z,15.36
2022-09-15T23:43:47.878Z,15.41
2022-09-15T23:46:16.040Z,15.34
2022-09-15T23:48:44.011Z,15.31
2022-09-15T23:51:12.204Z,15.34
2022-09-15T23:53:41.367Z,15.30
2022-09-15T23:56:09.432Z,15.29
2022-09-15T23:58:37.928Z,15.32
